createdAt,value
2022-07-27T00:01:37.828Z,83.29
2022-07-27T00:11:59.357Z,82.12
2022-07-27T00:22:20.873Z,83.25
2022-07-27T00:32:42.583Z,82.38
2022-07-27T00:43:04.214Z,84.59
2022-07-27T00:53:25.773Z,84.34
2022-07-27T01:03:47.941Z,85.01
2022-07-27T01:14:12.222Z,85.79
2022-07-27T01:24:34.288Z,85.64
2022-07-27T01:34:55.834Z,87.83
2022-07-27T01:45:17.270Z,88.65
2022-07-27T01:55:39.364Z,87.97
2022-07-27T02:06:01.261Z,88.79
2022-07-27T02:16:22.850Z,88.08
2022-07-27T02:26:46.285Z,88.91
2022-07-27T02:37:11.345Z,89.85
2022-07-27T02:47:32.891Z,89.01
2022-07-27T02:57:54.327Z,88.87
2022-07-27T03:08:16.133Z,91.79
2022-07-27T03:18:38.339Z,94.53
2022-07-27T03:29:00.207Z,96.34
2022-07-27T03:39:21.709Z,95.96
2022-07-27T03:49:43.281Z,97.29
2022-07-27T04:00:04.896Z,98.44
2022-07-27T04:10:31.556Z,99.49
2022-07-27T04:20:53.433Z,96.04
2022-07-27T04:31:15.079Z,98.43
2022-07-27T04:41:36.502Z,98.08
2022-07-27T04:51:58.088Z,95.80
2022-07-27T05:02:19.609Z,95.88
2022-07-27T05:12:41.151Z,93.25
2022-07-27T05:23:02.762Z,93.45
2022-07-27T05:33:24.179Z,91.31
2022-07-27T05:43:45.665Z,87.60
2022-07-27T05:54:08.080Z,84.48
2022-07-27T06:04:29.681Z,83.80
2022-07-27T06:14:51.308Z,81.09
2022-07-27T06:25:13.423Z,78.77
2022-07-27T06:35:38.978Z,79.83
2022-07-27T06:46:00.892Z,78.15
2022-07-27T06:56:22.350Z,75.46
2022-07-27T07:06:44.613Z,76.61
2022-07-27T07:17:06.220Z,75.72
2022-07-27T07:27:28.370Z,74.60
2022-07-27T07:37:50.531Z,72.79
2022-07-27T07:48:12.444Z,70.96
2022-07-27T07:58:33.999Z,70.30
2022-07-27T08:08:55.538Z,69.42
2022-07-27T08:19:17.069Z,73.87
2022-07-27T08:29:39.453Z,74.26
2022-07-27T08:50:43.102Z,68.11
2022-07-27T09:01:04.773Z,68.21
2022-07-27T09:11:26.391Z,63.83
2022-07-27T09:21:47.780Z,63.66
2022-07-27T09:32:18.314Z,62.74
2022-07-27T09:43:14.658Z,60.80
2022-07-27T09:53:41.411Z,58.85
2022-07-27T10:04:05.238Z,60.25
2022-07-27T10:14:26.787Z,60.87
2022-07-27T10:24:58.109Z,58.96
2022-07-27T10:35:32.750Z,59.77
2022-07-27T10:46:01.918Z,58.35
2022-07-27T10:56:44.150Z,57.24
2022-07-27T11:07:23.931Z,55.57
2022-07-27T11:18:00.179Z,54.59
2022-07-27T11:28:35.183Z,49.70
2022-07-27T11:38:56.727Z,48.25
2022-07-27T11:49:28.727Z,45.88
2022-07-27T11:59:51.090Z,45.65
2022-07-27T12:10:13.426Z,46.54
2022-07-27T12:20:37.325Z,47.44
2022-07-27T12:30:58.970Z,46.43
2022-07-27T12:41:27.826Z,47.28
2022-07-27T12:51:49.265Z,46.73
2022-07-27T13:02:10.727Z,46.57
2022-07-27T13:12:32.229Z,47.66
2022-07-27T13:22:54.056Z,53.87
2022-07-27T13:33:15.605Z,55.32
2022-07-27T13:43:37.194Z,55.10
2022-07-27T13:53:58.592Z,57.82
2022-07-27T14:04:20.149Z,55.27
2022-07-27T14:14:41.679Z,56.02
2022-07-27T14:25:03.306Z,56.35
2022-07-27T14:35:24.858Z,54.73
2022-07-27T14:45:47.489Z,54.71
2022-07-27T14:56:08.938Z,52.59
2022-07-27T15:06:33.921Z,52.75
2022-07-27T15:16:58.389Z,48.00
2022-07-27T15:27:20.136Z,50.11
2022-07-27T15:37:41.611Z,52.39
2022-07-27T15:48:17.139Z,52.14
2022-07-27T15:58:38.564Z,52.45
2022-07-27T16:09:00.122Z,51.67
2022-07-27T16:19:21.532Z,50.26
2022-07-27T16:29:43.240Z,49.25
2022-07-27T16:40:05.133Z,50.38
2022-07-27T16:50:26.672Z,50.93
2022-07-27T17:00:48.133Z,51.70
2022-07-27T17:11:11.152Z,53.43
2022-07-27T17:21:32.666Z,52.12
2022-07-27T17:31:54.181Z,54.30
2022-07-27T17:42:15.755Z,56.57
2022-07-27T17:52:38.468Z,56.42
2022-07-27T18:03:00.703Z,58.72
2022-07-27T18:13:22.211Z,58.53
2022-07-27T18:23:43.749Z,61.62
2022-07-27T18:34:09.268Z,61.25
2022-07-27T18:44:38.414Z,62.12
2022-07-27T18:55:00.905Z,62.90
2022-07-27T19:05:40.696Z,64.38
2022-07-27T19:16:03.472Z,64.49
2022-07-27T19:26:25.189Z,64.30
2022-07-27T19:36:46.743Z,66.08
2022-07-27T19:47:08.514Z,65.64
2022-07-27T19:57:30.101Z,65.38
2022-07-27T20:07:51.683Z,66.54
2022-07-27T20:18:13.301Z,67.39
2022-07-27T20:28:34.965Z,68.00
2022-07-27T20:38:58.997Z,67.05
2022-07-27T20:49:20.728Z,67.34
2022-07-27T20:59:42.267Z,67.71
2022-07-27T21:10:05.332Z,68.83
2022-07-27T21:20:27.554Z,68.58
2022-07-27T21:30:49.097Z,70.37
2022-07-27T21:41:10.629Z,70.75
2022-07-27T21:51:32.229Z,71.01
2022-07-27T22:01:53.782Z,71.60
2022-07-27T22:12:15.334Z,72.15
2022-07-27T22:22:37.004Z,73.46
2022-07-27T22:32:59.834Z,74.33
2022-07-27T22:43:21.392Z,74.66
2022-07-27T22:53:44.585Z,75.69
2022-07-27T23:04:06.248Z,77.71
2022-07-27T23:14:29.288Z,78.65
2022-07-27T23:24:51.167Z,78.48
2022-07-27T23:35:12.896Z,79.89
2022-07-27T23:45:35.040Z,80.87
2022-07-27T23:55:56.730Z,80.18
